createdAt,value
2016-02-01T00:00:32.960Z,5.4
2016-02-01T00:01:32.916Z,5.4
2016-02-01T00:02:32.856Z,5.3
2016-02-01T00:03:32.812Z,5.2
2016-02-01T00:04:32.756Z,5.3
2016-02-01T00:05:32.695Z,5.3
2016-02-01T00:06:32.636Z,5.3
2016-02-01T00:07:32.607Z,5.3
2016-02-01T00:08:32.531Z,5.4
2016-02-01T00:09:32.487Z,5.4
2016-02-01T00:10:32.428Z,5.3
2016-02-01T00:11:32.368Z,5.3
2016-02-01T00:12:32.323Z,5.3
2016-02-01T00:13:32.264Z,5.3
2016-02-01T00:14:32.204Z,5.2
2016-02-01T00:15:32.161Z,5.2
2016-02-01T00:16:32.100Z,5.2
2016-02-01T00:17:32.041Z,5.3
2016-02-01T00:18:31.997Z,5.3
2016-02-01T00:19:31.937Z,5.3
2016-02-01T00:20:31.878Z,5.2
2016-02-01T00:21:31.830Z,5.2
2016-02-01T00:22:31.769Z,5.1
2016-02-01T00:23:31.725Z,5.2
2016-02-01T00:24:31.679Z,5.2
2016-02-01T00:25:31.603Z,5.2
2016-02-01T00:26:31.529Z,5.1
2016-02-01T00:27:31.454Z,5.1
2016-02-01T00:28:31.394Z,5.2
2016-02-01T00:29:31.353Z,5.2
2016-02-01T00:30:31.256Z,5.2
2016-02-01T00:31:31.206Z,5.3
2016-02-01T00:32:31.142Z,5.2
2016-02-01T00:33:31.077Z,5.3
2016-02-01T00:34:31.027Z,5.3
2016-02-01T00:35:30.966Z,5.3
2016-02-01T00:36:30.920Z,5.2
2016-02-01T00:37:30.858Z,5.3
2016-02-01T00:38:30.843Z,5.3
2016-02-01T00:39:30.751Z,5.3
2016-02-01T00:40:30.676Z,5.4
2016-02-01T00:41:30.632Z,5.5
2016-02-01T00:42:30.570Z,5.4
2016-02-01T00:43:30.525Z,5.4
2016-02-01T00:44:30.464Z,5.4
2016-02-01T00:45:30.404Z,5.4
2016-02-01T00:46:30.360Z,5.4
2016-02-01T00:47:30.299Z,5.4
2016-02-01T00:48:30.256Z,5.3
2016-02-01T00:49:30.198Z,5.4
2016-02-01T00:50:30.138Z,5.4
2016-02-01T00:51:30.078Z,5.4
2016-02-01T00:52:30.018Z,5.4
2016-02-01T00:53:29.978Z,5.4
2016-02-01T00:54:29.918Z,5.4
2016-02-01T00:55:29.874Z,5.4
2016-02-01T00:56:29.804Z,5.4
2016-02-01T00:57:29.759Z,5.4
2016-02-01T00:58:29.698Z,5.4
2016-02-01T00:59:29.655Z,5.4
2016-02-01T01:00:29.596Z,5.4
2016-02-01T01:01:29.537Z,5.4
2016-02-01T01:02:29.493Z,5.4
2016-02-01T01:03:29.432Z,5.4
2016-02-01T01:04:29.373Z,5.4
2016-02-01T01:05:29.332Z,5.5
2016-02-01T01:06:29.271Z,5.5
2016-02-01T01:07:29.212Z,5.5
2016-02-01T01:08:29.168Z,5.4
2016-02-01T01:09:29.111Z,5.4
2016-02-01T01:10:29.052Z,5.4
2016-02-01T01:11:28.992Z,5.4
2016-02-01T01:12:28.948Z,5.4
2016-02-01T01:13:28.888Z,5.4
2016-02-01T01:14:28.829Z,5.5
2016-02-01T01:15:28.785Z,5.4
2016-02-01T01:16:28.725Z,5.4
2016-02-01T01:17:28.681Z,5.4
2016-02-01T01:18:28.621Z,5.4
2016-02-01T01:19:28.561Z,5.4
2016-02-01T01:20:28.521Z,5.5
2016-02-01T01:21:28.462Z,5.5
2016-02-01T01:22:28.402Z,5.5
2016-02-01T01:23:28.358Z,5.5
2016-02-01T01:24:28.298Z,5.4
2016-02-01T01:25:28.238Z,5.4
2016-02-01T01:26:28.194Z,5.5
2016-02-01T01:27:28.135Z,5.5
2016-02-01T01:28:28.074Z,5.5
2016-02-01T01:29:28.031Z,5.6
2016-02-01T01:30:27.972Z,5.5
2016-02-01T01:31:27.928Z,5.4
2016-02-01T01:32:27.868Z,5.4
2016-02-01T01:33:27.824Z,5.4
2016-02-01T01:34:27.750Z,5.4
2016-02-01T01:35:27.705Z,5.5
2016-02-01T01:36:27.645Z,5.4
2016-02-01T01:37:27.601Z,5.4
2016-02-01T01:38:27.543Z,5.4
2016-02-01T01:39:27.498Z,5.4
2016-02-01T01:40:27.438Z,5.4
2016-02-01T01:41:27.382Z,5.4
2016-02-01T01:42:27.337Z,5.5
2016-02-01T01:43:27.278Z,5.5
2016-02-01T01:44:27.218Z,5.6
2016-02-01T01:45:27.173Z,5.6
2016-02-01T01:46:27.114Z,5.6
2016-02-01T01:47:27.070Z,5.6
2016-02-01T01:48:27.010Z,5.6
2016-02-01T01:49:26.950Z,5.6
2016-02-01T01:50:26.894Z,5.7
2016-02-01T01:51:26.849Z,5.6
2016-02-01T01:52:26.790Z,5.5
2016-02-01T01:53:26.746Z,5.5
2016-02-01T01:54:26.672Z,5.5
2016-02-01T01:55:26.627Z,5.4
2016-02-01T01:56:26.583Z,5.4
2016-02-01T01:57:26.524Z,5.4
2016-02-01T01:58:26.463Z,5.4
2016-02-01T01:59:26.408Z,5.4
2016-02-01T02:00:26.365Z,5.4
2016-02-01T02:01:26.306Z,5.4
2016-02-01T02:02:26.259Z,5.4
2016-02-01T02:03:26.199Z,5.4
2016-02-01T02:04:26.155Z,5.4
2016-02-01T02:05:26.086Z,5.4
2016-02-01T02:06:32.296Z,5.4
2016-02-01T02:07:25.983Z,5.4
2016-02-01T02:08:25.923Z,5.4
2016-02-01T02:09:25.879Z,5.5
2016-02-01T02:10:25.819Z,5.5
2016-02-01T02:11:25.760Z,5.5
2016-02-01T02:12:25.717Z,5.5
2016-02-01T02:13:25.657Z,5.5
2016-02-01T02:14:25.612Z,5.5
2016-02-01T02:15:25.554Z,5.4
2016-02-01T02:16:25.494Z,5.4
2016-02-01T02:17:25.451Z,5.4
2016-02-01T02:18:25.391Z,5.4
2016-02-01T02:19:25.346Z,5.4
2016-02-01T02:20:25.271Z,5.4
2016-02-01T02:21:25.227Z,5.5
2016-02-01T02:22:25.167Z,5.5
2016-02-01T02:23:25.107Z,5.5
2016-02-01T02:24:25.064Z,5.5
2016-02-01T02:25:25.004Z,5.5
2016-02-01T02:26:24.945Z,5.5
2016-02-01T02:27:24.901Z,5.5
2016-02-01T02:28:24.841Z,5.6
2016-02-01T02:29:24.781Z,5.5
2016-02-01T02:30:24.740Z,5.6
2016-02-01T02:31:24.680Z,5.6
2016-02-01T02:32:24.620Z,5.6
2016-02-01T02:33:24.577Z,5.6
2016-02-01T02:34:24.516Z,5.6
2016-02-01T02:35:24.458Z,5.6
2016-02-01T02:36:24.414Z,5.6
2016-02-01T02:37:24.353Z,5.6
2016-02-01T02:38:24.294Z,5.6
2016-02-01T02:39:24.255Z,5.6
2016-02-01T02:40:24.194Z,5.7
2016-02-01T02:41:24.136Z,5.7
2016-02-01T02:42:24.091Z,5.7
2016-02-01T02:43:24.031Z,5.7
2016-02-01T02:44:23.987Z,5.6
2016-02-01T02:45:23.928Z,5.6
2016-02-01T02:46:23.870Z,5.6
2016-02-01T02:47:23.810Z,5.7
2016-02-01T02:48:23.766Z,5.6
2016-02-01T02:49:23.706Z,5.6
2016-02-01T02:50:23.647Z,5.6
2016-02-01T02:51:23.597Z,5.7
2016-02-01T02:52:23.538Z,5.7
2016-02-01T02:53:23.496Z,5.8
2016-02-01T02:54:23.436Z,5.7
2016-02-01T02:55:23.378Z,5.8
2016-02-01T02:56:23.334Z,5.8
2016-02-01T02:57:23.274Z,5.8
2016-02-01T02:58:23.214Z,5.8
2016-02-01T02:59:23.170Z,5.8
2016-02-01T03:00:23.111Z,5.8
2016-02-01T03:01:23.068Z,5.7
2016-02-01T03:02:22.991Z,5.7
2016-02-01T03:03:22.948Z,5.8
2016-02-01T03:04:22.890Z,5.8
2016-02-01T03:05:22.846Z,5.8
2016-02-01T03:06:22.788Z,5.9
2016-02-01T03:07:22.743Z,5.9
2016-02-01T03:08:22.683Z,5.9
2016-02-01T03:09:22.624Z,5.9
2016-02-01T03:10:22.579Z,5.9
2016-02-01T03:11:22.520Z,5.9
2016-02-01T03:12:22.461Z,5.9
2016-02-01T03:13:22.416Z,5.9
2016-02-01T03:14:22.358Z,5.9
2016-02-01T03:15:22.300Z,5.9
2016-02-01T03:16:22.255Z,5.9
2016-02-01T03:17:22.196Z,5.9
2016-02-01T03:18:22.133Z,5.9
2016-02-01T03:19:22.089Z,5.9
2016-02-01T03:20:22.033Z,5.9
2016-02-01T03:21:21.972Z,5.9
2016-02-01T03:22:21.959Z,5.9
2016-02-01T03:23:21.868Z,5.9
2016-02-01T03:24:21.812Z,5.9
2016-02-01T03:25:21.768Z,6
2016-02-01T03:26:21.708Z,6
2016-02-01T03:27:21.680Z,6
2016-02-01T03:28:21.605Z,6.1
2016-02-01T03:29:21.546Z,6
2016-02-01T03:30:21.502Z,6.1
2016-02-01T03:31:21.442Z,6.1
2016-02-01T03:32:21.382Z,6.1
2016-02-01T03:33:21.354Z,6.1
2016-02-01T03:34:21.279Z,6.1
2016-02-01T03:35:21.235Z,6.1
2016-02-01T03:36:21.191Z,6
2016-02-01T03:37:21.121Z,6
2016-02-01T03:38:21.092Z,6
2016-02-01T03:39:21.048Z,6.1
2016-02-01T03:40:20.960Z,6.1
2016-02-01T03:41:20.915Z,6
2016-02-01T03:42:20.856Z,6
2016-02-01T03:43:20.796Z,6
2016-02-01T03:44:20.768Z,6
2016-02-01T03:45:20.692Z,6
2016-02-01T03:46:20.648Z,6
2016-02-01T03:47:20.588Z,6.1
2016-02-01T03:48:20.544Z,6
2016-02-01T03:49:20.515Z,6
2016-02-01T03:50:20.424Z,6
2016-02-01T03:51:20.366Z,5.9
2016-02-01T03:52:20.326Z,6
2016-02-01T03:53:20.265Z,6
2016-02-01T03:54:20.221Z,6
2016-02-01T03:55:20.209Z,6
2016-02-01T03:56:20.119Z,6
2016-02-01T03:57:20.058Z,6
2016-02-01T03:58:19.998Z,5.9
2016-02-01T03:59:19.938Z,6
2016-02-01T04:00:19.910Z,5.9
2016-02-01T04:01:19.838Z,5.9
2016-02-01T04:02:19.794Z,5.9
2016-02-01T04:03:19.750Z,5.9
2016-02-01T04:04:19.691Z,5.9
2016-02-01T04:05:19.633Z,6
2016-02-01T04:06:19.574Z,6
2016-02-01T04:07:19.513Z,6
2016-02-01T04:08:19.469Z,6
2016-02-01T04:09:19.425Z,6
2016-02-01T04:10:19.365Z,6
2016-02-01T04:11:19.305Z,5.9
2016-02-01T04:12:19.261Z,5.9
2016-02-01T04:13:19.201Z,6
2016-02-01T04:14:19.141Z,6
2016-02-01T04:15:19.098Z,6
2016-02-01T04:16:19.240Z,6
2016-02-01T04:17:18.978Z,6.1
2016-02-01T04:18:18.934Z,6.1
2016-02-01T04:19:19.030Z,6.1
2016-02-01T04:20:18.876Z,6
2016-02-01T04:21:18.787Z,6.1
2016-02-01T04:22:18.775Z,6.1
2016-02-01T04:23:18.668Z,6
2016-02-01T04:24:18.609Z,6.1
2016-02-01T04:25:18.565Z,6.1
2016-02-01T04:26:18.615Z,6.1
2016-02-01T04:27:18.462Z,6.1
2016-02-01T04:28:18.417Z,6.1
2016-02-01T04:29:18.498Z,6.1
2016-02-01T04:30:18.316Z,6.1
2016-02-01T04:31:18.240Z,6.1
2016-02-01T04:32:18.197Z,6.1
2016-02-01T04:33:18.137Z,6.2
2016-02-01T04:34:18.078Z,6.2
2016-02-01T04:35:18.033Z,6.2
2016-02-01T04:36:18.145Z,6.2
2016-02-01T04:37:17.915Z,6.2
2016-02-01T04:38:17.856Z,6.2
2016-02-01T04:39:17.811Z,6.1
2016-02-01T04:40:17.768Z,6.1
2016-02-01T04:41:17.834Z,6.1
2016-02-01T04:42:17.665Z,6.1
2016-02-01T04:43:17.590Z,6.1
2016-02-01T04:44:17.545Z,6.1
2016-02-01T04:45:17.485Z,6.1
2016-02-01T04:46:17.457Z,6.2
2016-02-01T04:47:17.522Z,6.1
2016-02-01T04:48:17.338Z,6.1
2016-02-01T04:49:17.294Z,6.1
2016-02-01T04:50:17.360Z,6.1
2016-02-01T04:51:17.273Z,6.1
2016-02-01T04:52:17.132Z,6.1
2016-02-01T04:53:17.058Z,6.1
2016-02-01T04:54:17.029Z,6
2016-02-01T04:55:16.955Z,6.1
2016-02-01T04:56:16.894Z,6.1
2016-02-01T04:57:16.850Z,6.1
2016-02-01T04:58:16.791Z,6.1
2016-02-01T04:59:16.808Z,6.1
2016-02-01T05:00:16.702Z,6.1
2016-02-01T05:01:16.627Z,6.1
2016-02-01T05:02:16.584Z,6.1
2016-02-01T05:03:16.524Z,6
2016-02-01T05:04:16.482Z,6
2016-02-01T05:05:16.422Z,6
2016-02-01T05:06:16.395Z,6
2016-02-01T05:07:16.319Z,6
2016-02-01T05:08:16.259Z,6
2016-02-01T05:09:16.214Z,5.9
2016-02-01T05:10:16.186Z,5.9
2016-02-01T05:11:16.096Z,6
2016-02-01T05:12:16.052Z,6
2016-02-01T05:13:16.023Z,6
2016-02-01T05:14:15.932Z,6
2016-02-01T05:15:15.888Z,5.9
2016-02-01T05:16:15.829Z,5.8
2016-02-01T05:17:15.784Z,5.8
2016-02-01T05:18:15.725Z,5.8
2016-02-01T05:19:15.667Z,5.7
2016-02-01T05:20:15.622Z,5.8
2016-02-01T05:21:15.563Z,5.7
2016-02-01T05:22:15.505Z,5.7
2016-02-01T05:23:15.460Z,5.8
2016-02-01T05:24:15.417Z,5.8
2016-02-01T05:25:15.357Z,5.8
2016-02-01T05:26:15.313Z,5.7
2016-02-01T05:27:15.238Z,5.8
2016-02-01T05:28:15.194Z,5.7
2016-02-01T05:29:15.165Z,5.8
2016-02-01T05:30:15.074Z,5.8
2016-02-01T05:31:15.031Z,5.9
2016-02-01T05:32:14.972Z,5.9
2016-02-01T05:33:14.912Z,5.9
2016-02-01T05:34:14.867Z,6
2016-02-01T05:35:14.823Z,6
2016-02-01T05:36:14.765Z,6.1
2016-02-01T05:37:14.705Z,6
2016-02-01T05:38:14.646Z,6.1
2016-02-01T05:39:14.602Z,6
2016-02-01T05:40:14.558Z,6
2016-02-01T05:41:14.498Z,6
2016-02-01T05:42:14.439Z,6
2016-02-01T05:43:14.377Z,6
2016-02-01T05:44:14.332Z,6
2016-02-01T05:45:14.303Z,6.1
2016-02-01T05:46:14.245Z,6
2016-02-01T05:47:14.176Z,6
2016-02-01T05:48:14.132Z,6.1
2016-02-01T05:49:14.056Z,6.1
2016-02-01T05:50:14.012Z,6
2016-02-01T05:51:13.956Z,6
2016-02-01T05:52:13.896Z,6.1
2016-02-01T05:53:13.852Z,6.1
2016-02-01T05:54:13.808Z,6
2016-02-01T05:55:13.733Z,6
2016-02-01T05:56:13.690Z,5.9
2016-02-01T05:57:13.646Z,5.9
2016-02-01T05:58:13.587Z,5.9
2016-02-01T05:59:13.559Z,6
2016-02-01T06:00:13.468Z,6
2016-02-01T06:01:13.413Z,6
2016-02-01T06:02:13.369Z,6.1
2016-02-01T06:03:13.327Z,6.1
2016-02-01T06:04:13.299Z,6.1
2016-02-01T06:05:13.224Z,6.1
2016-02-01T06:06:13.148Z,6.2
2016-02-01T06:07:13.123Z,6.1
2016-02-01T06:08:13.048Z,6.2
2016-02-01T06:09:13.034Z,6.2
2016-02-01T06:10:12.991Z,6.2
2016-02-01T06:11:12.884Z,6.2
2016-02-01T06:12:12.826Z,6.2
2016-02-01T06:13:12.782Z,6.1
2016-02-01T06:14:12.722Z,6.1
2016-02-01T06:15:12.694Z,6.2
2016-02-01T06:16:12.621Z,6.2
2016-02-01T06:17:12.577Z,6.2
2016-02-01T06:18:12.514Z,6.2
2016-02-01T06:19:12.455Z,6.1
2016-02-01T06:20:12.411Z,6.2
2016-02-01T06:21:12.357Z,6.1
2016-02-01T06:22:12.298Z,6.2
2016-02-01T06:23:12.255Z,6.1
2016-02-01T06:24:12.196Z,6.2
2016-02-01T06:25:12.134Z,6.2
2016-02-01T06:26:12.106Z,6.2
2016-02-01T06:27:12.031Z,6.2
2016-02-01T06:28:11.974Z,6.2
2016-02-01T06:29:11.946Z,6.2
2016-02-01T06:30:11.870Z,6.3
2016-02-01T06:31:11.827Z,6.3
2016-02-01T06:32:11.768Z,6.4
2016-02-01T06:33:11.709Z,6.4
2016-02-01T06:34:11.681Z,6.4
2016-02-01T06:35:11.620Z,6.4
2016-02-01T06:36:11.545Z,6.3
2016-02-01T06:37:11.519Z,6.3
2016-02-01T06:38:11.443Z,6.3
2016-02-01T06:39:11.400Z,6.3
2016-02-01T06:40:11.339Z,6.3
2016-02-01T06:41:11.281Z,6.3
2016-02-01T06:42:11.237Z,6.2
2016-02-01T06:43:11.193Z,6.2
2016-02-01T06:44:11.136Z,6.2
2016-02-01T06:45:11.092Z,6.2
2016-02-01T06:46:11.017Z,6.2
2016-02-01T06:47:10.962Z,6.2
2016-02-01T06:48:10.918Z,6.2
2016-02-01T06:49:10.858Z,6.2
2016-02-01T06:50:10.814Z,6.2
2016-02-01T06:51:10.754Z,6.2
2016-02-01T06:52:10.710Z,6.3
2016-02-01T06:53:10.666Z,6.3
2016-02-01T06:54:10.591Z,6.3
2016-02-01T06:55:10.531Z,6.3
2016-02-01T06:56:10.534Z,6.3
2016-02-01T06:57:10.430Z,6.3
2016-02-01T06:58:10.370Z,6.3
2016-02-01T06:59:10.341Z,6.3
2016-02-01T07:00:10.266Z,6.4
2016-02-01T07:01:10.237Z,6.4
2016-02-01T07:02:10.194Z,6.4
2016-02-01T07:03:10.119Z,6.4
2016-02-01T07:04:10.074Z,6.4
2016-02-01T07:05:09.999Z,6.4
2016-02-01T07:06:09.938Z,6.4
2016-02-01T07:07:09.895Z,6.4
2016-02-01T07:08:09.832Z,6.5
2016-02-01T07:09:09.788Z,6.5
2016-02-01T07:10:09.728Z,6.4
2016-02-01T07:11:09.668Z,6.4
2016-02-01T07:12:09.624Z,6.4
2016-02-01T07:13:09.566Z,6.4
2016-02-01T07:14:09.506Z,6.4
2016-02-01T07:15:09.462Z,6.4
2016-02-01T07:16:09.403Z,6.5
2016-02-01T07:17:09.358Z,6.5
2016-02-01T07:18:09.311Z,6.5
2016-02-01T07:19:09.236Z,6.5
2016-02-01T07:20:09.192Z,6.5
2016-02-01T07:21:09.148Z,6.5
2016-02-01T07:22:09.089Z,6.5
2016-02-01T07:23:09.029Z,6.4
2016-02-01T07:24:08.985Z,6.4
2016-02-01T07:25:08.925Z,6.4
2016-02-01T07:26:08.865Z,6.3
2016-02-01T07:27:08.824Z,6.3
2016-02-01T07:28:08.763Z,6.4
2016-02-01T07:29:08.705Z,6.4
2016-02-01T07:30:08.661Z,6.4
2016-02-01T07:31:08.600Z,6.4
2016-02-01T07:32:08.541Z,6.4
2016-02-01T07:33:08.497Z,6.4
2016-02-01T07:34:08.443Z,6.4
2016-02-01T07:35:08.384Z,6.4
2016-02-01T07:36:08.324Z,6.4
2016-02-01T07:37:08.280Z,6.4
2016-02-01T07:38:08.221Z,6.4
2016-02-01T07:39:08.161Z,6.4
2016-02-01T07:40:08.116Z,6.4
2016-02-01T07:41:08.058Z,6.4
2016-02-01T07:42:07.997Z,6.4
2016-02-01T07:43:07.939Z,6.4
2016-02-01T07:44:07.896Z,6.4
2016-02-01T07:45:07.835Z,6.3
2016-02-01T07:46:07.792Z,6.4
2016-02-01T07:47:07.732Z,6.4
2016-02-01T07:48:07.687Z,6.4
2016-02-01T07:49:07.617Z,6.4
2016-02-01T07:50:07.573Z,6.5
2016-02-01T07:51:07.513Z,6.4
2016-02-01T07:52:07.450Z,6.5
2016-02-01T07:53:07.406Z,6.4
2016-02-01T07:54:07.348Z,6.4
2016-02-01T07:55:07.288Z,6.4
2016-02-01T07:56:07.259Z,6.4
2016-02-01T07:57:07.184Z,6.4
2016-02-01T07:58:07.140Z,6.4
2016-02-01T07:59:07.064Z,6.4
2016-02-01T08:00:07.020Z,6.5
2016-02-01T08:01:06.960Z,6.4
2016-02-01T08:02:06.917Z,6.4
2016-02-01T08:03:06.856Z,6.4
2016-02-01T08:04:06.809Z,6.4
2016-02-01T08:05:06.750Z,6.5
2016-02-01T08:06:06.690Z,6.4
2016-02-01T08:07:06.631Z,6.5
2016-02-01T08:08:06.590Z,6.5
2016-02-01T08:09:06.530Z,6.5
2016-02-01T08:10:06.472Z,6.5
2016-02-01T08:11:06.428Z,6.5
2016-02-01T08:12:06.367Z,6.6
2016-02-01T08:13:06.323Z,6.5
2016-02-01T08:14:06.280Z,6.6
2016-02-01T08:15:06.236Z,6.6
2016-02-01T08:16:06.160Z,6.6
2016-02-01T08:17:06.100Z,6.6
2016-02-01T08:18:06.056Z,6.6
2016-02-01T08:19:05.998Z,6.7
2016-02-01T08:20:05.954Z,6.7
2016-02-01T08:21:05.894Z,6.7
2016-02-01T08:22:05.835Z,6.7
2016-02-01T08:23:05.791Z,6.7
2016-02-01T08:24:05.731Z,6.7
2016-02-01T08:25:05.688Z,6.7
2016-02-01T08:26:05.627Z,6.7
2016-02-01T08:27:05.568Z,6.7
2016-02-01T08:28:05.524Z,6.8
2016-02-01T08:29:05.464Z,6.7
2016-02-01T08:30:05.419Z,6.8
2016-02-01T08:31:05.360Z,6.8
2016-02-01T08:32:05.301Z,6.8
2016-02-01T08:33:05.259Z,6.8
2016-02-01T08:34:05.200Z,6.8
2016-02-01T08:35:05.140Z,6.8
2016-02-01T08:36:05.096Z,6.9
2016-02-01T08:37:05.037Z,6.9
2016-02-01T08:38:04.993Z,6.9
2016-02-01T08:39:04.934Z,6.9
2016-02-01T08:40:04.890Z,6.9
2016-02-01T08:41:04.830Z,6.9
2016-02-01T08:42:04.770Z,6.9
2016-02-01T08:43:04.741Z,6.9
2016-02-01T08:44:04.698Z,6.9
2016-02-01T08:45:04.623Z,6.9
2016-02-01T08:46:04.563Z,7
2016-02-01T08:47:04.518Z,6.9
2016-02-01T08:48:04.460Z,6.9
2016-02-01T08:49:04.402Z,7
2016-02-01T08:50:04.357Z,6.9
2016-02-01T08:51:04.298Z,7
2016-02-01T08:52:04.254Z,7
2016-02-01T08:53:04.194Z,7
2016-02-01T08:54:04.135Z,7
2016-02-01T08:55:04.077Z,7
2016-02-01T08:56:04.032Z,7
2016-02-01T08:57:03.973Z,7
2016-02-01T08:58:03.929Z,7
2016-02-01T08:59:03.868Z,7
2016-02-01T09:00:03.810Z,7
2016-02-01T09:01:03.766Z,7.1
2016-02-01T09:02:03.705Z,7
2016-02-01T09:03:03.662Z,7
2016-02-01T09:04:03.619Z,7
2016-02-01T09:05:03.558Z,7
2016-02-01T09:06:03.499Z,7.1
2016-02-01T09:07:03.455Z,7.1
2016-02-01T09:08:03.394Z,7.1
2016-02-01T09:09:03.337Z,7.1
2016-02-01T09:10:03.293Z,7.1
2016-02-01T09:11:03.232Z,7.1
2016-02-01T09:12:03.189Z,7.1
2016-02-01T09:13:03.129Z,7.1
2016-02-01T09:14:03.070Z,7.1
2016-02-01T09:15:03.026Z,7.1
2016-02-01T09:16:02.966Z,7.1
2016-02-01T09:17:02.906Z,7.1
2016-02-01T09:18:02.863Z,7.1
2016-02-01T09:19:02.817Z,7.2
2016-02-01T09:20:02.750Z,7.1
2016-02-01T09:21:02.706Z,7.1
2016-02-01T09:22:02.651Z,7.2
2016-02-01T09:23:02.591Z,7.2
2016-02-01T09:24:02.547Z,7.1
2016-02-01T09:25:02.488Z,7.2
2016-02-01T09:26:02.441Z,7.1
2016-02-01T09:27:02.382Z,7.1
2016-02-01T09:28:02.322Z,7.2
2016-02-01T09:29:02.280Z,7.2
2016-02-01T09:30:02.222Z,7.2
2016-02-01T09:31:02.156Z,7.2
2016-02-01T09:32:02.099Z,7.2
2016-02-01T09:33:02.040Z,7.2
2016-02-01T09:34:01.967Z,7.2
2016-02-01T09:35:01.894Z,7.2
2016-02-01T09:36:01.841Z,7.2
2016-02-01T09:37:01.776Z,7.2
2016-02-01T09:38:01.712Z,7.2
2016-02-01T09:39:01.662Z,7.2
2016-02-01T09:40:01.597Z,7.2
2016-02-01T09:41:01.539Z,7.2
2016-02-01T09:42:01.509Z,7.2
2016-02-01T09:43:01.431Z,7.3
2016-02-01T09:44:01.386Z,7.3
2016-02-01T09:45:01.324Z,7.2
2016-02-01T09:46:01.279Z,7.3
2016-02-01T09:47:01.221Z,7.3
2016-02-01T09:48:01.160Z,7.3
2016-02-01T09:49:01.099Z,7.3
2016-02-01T09:50:01.057Z,7.3
2016-02-01T09:51:01.005Z,7.3
2016-02-01T09:52:00.945Z,7.3
2016-02-01T09:53:00.902Z,7.3
2016-02-01T09:54:00.841Z,7.4
2016-02-01T09:55:00.782Z,7.3
2016-02-01T09:56:00.738Z,7.4
2016-02-01T09:57:00.693Z,7.4
2016-02-01T09:58:00.618Z,7.4
2016-02-01T09:59:00.575Z,7.4
2016-02-01T10:00:00.514Z,7.4
2016-02-01T10:01:00.472Z,7.4
2016-02-01T10:02:00.413Z,7.5
2016-02-01T10:03:00.368Z,7.5
2016-02-01T10:04:00.309Z,7.5
2016-02-01T10:05:00.249Z,7.5
2016-02-01T10:06:00.205Z,7.5
2016-02-01T10:07:00.146Z,7.5
2016-02-01T10:08:00.117Z,7.5
2016-02-01T10:09:00.041Z,7.5
2016-02-01T10:09:59.987Z,7.6
2016-02-01T10:10:59.943Z,7.6
2016-02-01T10:11:59.882Z,7.6
2016-02-01T10:12:59.838Z,7.6
2016-02-01T10:13:59.779Z,7.6
2016-02-01T10:14:59.718Z,7.7
2016-02-01T10:15:59.675Z,7.7
2016-02-01T10:16:59.615Z,7.7
2016-02-01T10:17:59.570Z,7.7
2016-02-01T10:18:59.511Z,7.7
2016-02-01T10:19:59.468Z,7.7
2016-02-01T10:20:59.408Z,7.8
2016-02-01T10:21:59.380Z,7.8
2016-02-01T10:22:59.306Z,7.9
2016-02-01T10:23:59.246Z,7.9
2016-02-01T10:24:59.202Z,7.9
2016-02-01T10:25:59.144Z,7.9
2016-02-01T10:26:59.099Z,7.9
2016-02-01T10:27:59.040Z,7.9
2016-02-01T10:28:58.996Z,8
2016-02-01T10:29:58.935Z,8
2016-02-01T10:30:58.879Z,8
2016-02-01T10:31:58.835Z,8.1
2016-02-01T10:32:58.790Z,8
2016-02-01T10:33:58.730Z,8.1
2016-02-01T10:34:58.671Z,8.1
2016-02-01T10:35:58.637Z,8.2
2016-02-01T10:36:58.567Z,8.1
2016-02-01T10:37:58.509Z,8.2
2016-02-01T10:38:58.528Z,8.3
2016-02-01T10:39:58.486Z,8.3
2016-02-01T10:40:58.347Z,8.3
2016-02-01T10:41:58.303Z,8.3
2016-02-01T10:42:58.259Z,8.4
2016-02-01T10:43:58.199Z,8.4
2016-02-01T10:44:58.146Z,8.5
2016-02-01T10:45:58.101Z,8.5
2016-02-01T10:46:58.042Z,8.5
2016-02-01T10:47:57.998Z,8.5
2016-02-01T10:48:57.937Z,8.6
2016-02-01T10:49:57.893Z,8.5
2016-02-01T10:50:57.830Z,8.5
2016-02-01T10:51:57.786Z,8.5
2016-02-01T10:52:57.741Z,8.5
2016-02-01T10:53:57.682Z,8.5
2016-02-01T10:54:57.622Z,8.5
2016-02-01T10:55:57.566Z,8.6
2016-02-01T10:56:57.521Z,8.6
2016-02-01T10:57:57.477Z,8.7
2016-02-01T10:58:57.417Z,8.7
2016-02-01T10:59:57.374Z,8.7
2016-02-01T11:00:57.314Z,8.8
2016-02-01T11:01:57.270Z,8.8
2016-02-01T11:02:57.211Z,8.9
2016-02-01T11:03:57.150Z,8.9
2016-02-01T11:04:57.106Z,9
2016-02-01T11:05:57.062Z,9
2016-02-01T11:06:57.003Z,9
2016-02-01T11:07:56.958Z,9.1
2016-02-01T11:08:56.898Z,9.1
2016-02-01T11:09:56.854Z,9.1
2016-02-01T11:10:56.794Z,9.2
2016-02-01T11:11:56.752Z,9.2
2016-02-01T11:12:56.693Z,9.2
2016-02-01T11:13:56.664Z,9.2
2016-02-01T11:14:56.588Z,9.2
2016-02-01T11:15:56.546Z,9.2
2016-02-01T11:16:56.488Z,9.3
2016-02-01T11:17:56.444Z,9.3
2016-02-01T11:18:56.385Z,9.3
2016-02-01T11:19:56.341Z,9.3
2016-02-01T11:20:56.281Z,9.3
2016-02-01T11:21:56.222Z,9.3
2016-02-01T11:22:56.180Z,9.4
2016-02-01T11:23:56.135Z,9.5
2016-02-01T11:24:56.075Z,9.5
2016-02-01T11:25:56.016Z,9.5
2016-02-01T11:26:55.956Z,9.6
2016-02-01T11:27:55.911Z,9.6
2016-02-01T11:28:55.868Z,9.6
2016-02-01T11:29:55.807Z,9.7
2016-02-01T11:30:55.763Z,9.8
2016-02-01T11:31:55.704Z,9.8
2016-02-01T11:32:55.647Z,9.9
2016-02-01T11:33:55.602Z,9.9
2016-02-01T11:34:55.543Z,9.9
2016-02-01T11:35:55.499Z,9.9
2016-02-01T11:36:55.439Z,9.9
2016-02-01T11:37:55.380Z,9.9
2016-02-01T11:38:55.335Z,9.9
2016-02-01T11:39:55.276Z,10
2016-02-01T11:40:55.233Z,10
2016-02-01T11:41:55.224Z,10.1
2016-02-01T11:42:55.116Z,10.1
2016-02-01T11:43:55.074Z,10.2
2016-02-01T11:44:55.013Z,10.3
2016-02-01T11:45:54.986Z,10.3
2016-02-01T11:46:54.910Z,10.3
2016-02-01T11:47:54.865Z,10.4
2016-02-01T11:48:54.822Z,10.4
2016-02-01T11:49:54.761Z,10.5
2016-02-01T11:50:54.718Z,10.5
2016-02-01T11:51:54.657Z,10.6
2016-02-01T11:52:54.611Z,10.6
2016-02-01T11:53:54.552Z,10.6
2016-02-01T11:54:54.508Z,10.6
2016-02-01T11:55:54.447Z,10.7
2016-02-01T11:56:54.404Z,10.7
2016-02-01T11:57:54.347Z,10.7
2016-02-01T11:58:54.302Z,10.7
2016-02-01T11:59:54.243Z,10.8
2016-02-01T12:00:54.183Z,10.9
2016-02-01T12:01:54.140Z,11.1
2016-02-01T12:02:54.095Z,11.3
2016-02-01T12:03:54.036Z,11.3
2016-02-01T12:04:53.976Z,11.3
2016-02-01T12:05:53.931Z,11.3
2016-02-01T12:06:53.875Z,11.4
2016-02-01T12:07:53.830Z,11.5
2016-02-01T12:08:53.770Z,11.6
2016-02-01T12:09:53.727Z,11.6
2016-02-01T12:10:53.667Z,11.6
2016-02-01T12:11:53.607Z,11.6
2016-02-01T12:12:53.563Z,11.6
2016-02-01T12:13:53.504Z,11.6
2016-02-01T12:14:53.460Z,11.6
2016-02-01T12:15:53.415Z,11.6
2016-02-01T12:16:53.356Z,11.7
2016-02-01T12:17:53.315Z,11.6
2016-02-01T12:18:53.255Z,11.6
2016-02-01T12:19:53.211Z,11.5
2016-02-01T12:20:53.150Z,11.6
2016-02-01T12:21:53.091Z,11.6
2016-02-01T12:22:53.051Z,11.6
2016-02-01T12:23:53.006Z,11.6
2016-02-01T12:24:52.941Z,11.6
2016-02-01T12:25:52.899Z,11.6
2016-02-01T12:26:52.839Z,11.6
2016-02-01T12:27:52.779Z,11.6
2016-02-01T12:28:52.735Z,11.7
2016-02-01T12:29:52.706Z,11.6
2016-02-01T12:30:52.631Z,11.7
2016-02-01T12:31:52.586Z,11.8
2016-02-01T12:32:52.542Z,11.9
2016-02-01T12:33:52.483Z,11.9
2016-02-01T12:34:52.423Z,12
2016-02-01T12:35:52.363Z,12
2016-02-01T12:36:52.318Z,12.1
2016-02-01T12:37:52.274Z,12
2016-02-01T12:38:52.216Z,12
2016-02-01T12:39:52.156Z,12
2016-02-01T12:40:52.111Z,12
2016-02-01T12:41:52.052Z,12
2016-02-01T12:42:52.008Z,12
2016-02-01T12:43:51.947Z,12.1
2016-02-01T12:44:51.905Z,12.2
2016-02-01T12:45:51.844Z,12.2
2016-02-01T12:46:51.800Z,12.1
2016-02-01T12:47:51.744Z,12.1
2016-02-01T12:48:51.683Z,12.2
2016-02-01T12:49:51.640Z,12.1
2016-02-01T12:50:51.581Z,12.1
2016-02-01T12:51:51.536Z,12.2
2016-02-01T12:52:51.477Z,12.2
2016-02-01T12:53:51.419Z,12.2
2016-02-01T12:54:51.373Z,12.2
2016-02-01T12:55:51.329Z,12.2
2016-02-01T12:56:51.269Z,12.2
2016-02-01T12:57:51.428Z,12.3
2016-02-01T12:58:51.166Z,12.3
2016-02-01T12:59:51.121Z,12.2
2016-02-01T13:00:51.063Z,12.3
2016-02-01T13:01:51.018Z,12.3
2016-02-01T13:02:50.958Z,12.3
2016-02-01T13:03:50.902Z,12.3
2016-02-01T13:04:51.322Z,12.3
2016-02-01T13:05:50.794Z,12.2
2016-02-01T13:06:50.764Z,12.2
2016-02-01T13:07:50.689Z,12.2
2016-02-01T13:08:50.648Z,12.2
2016-02-01T13:09:50.589Z,12.1
2016-02-01T13:10:50.529Z,12.2
2016-02-01T13:11:50.485Z,12.3
2016-02-01T13:12:50.426Z,12.3
2016-02-01T13:13:50.365Z,12.3
2016-02-01T13:14:50.322Z,12.3
2016-02-01T13:15:50.277Z,12.2
2016-02-01T13:16:50.217Z,12.2
2016-02-01T13:17:50.158Z,12.3
2016-02-01T13:18:50.114Z,12.3
2016-02-01T13:19:50.069Z,12.2
2016-02-01T13:20:50.009Z,12.2
2016-02-01T13:21:49.951Z,12.2
2016-02-01T13:22:49.906Z,12.2
2016-02-01T13:23:49.862Z,12.2
2016-02-01T13:24:49.804Z,12.1
2016-02-01T13:25:49.754Z,12.1
2016-02-01T13:26:49.693Z,12.1
2016-02-01T13:27:49.649Z,12.1
2016-02-01T13:28:49.590Z,12.1
2016-02-01T13:29:49.530Z,12.1
2016-02-01T13:30:49.487Z,12
2016-02-01T13:31:49.442Z,12.1
2016-02-01T13:32:49.383Z,12
2016-02-01T13:33:49.343Z,12.1
2016-02-01T13:34:49.284Z,12
2016-02-01T13:35:49.224Z,12.1
2016-02-01T13:36:49.179Z,12.1
2016-02-01T13:37:49.123Z,12.1
2016-02-01T13:38:49.079Z,12.1
2016-02-01T13:39:49.034Z,12.1
2016-02-01T13:40:48.976Z,12
2016-02-01T13:41:48.916Z,12
2016-02-01T13:42:48.871Z,11.9
2016-02-01T13:43:48.812Z,11.9
2016-02-01T13:44:48.753Z,12
2016-02-01T13:45:48.709Z,11.9
2016-02-01T13:46:48.665Z,11.9
2016-02-01T13:47:48.605Z,11.9